Nearby METAR Reports

 

KFNL - Ft Collins/Love, Colorado, USA
Distance from station: NW 10mi, 16km
Updated: Mon, 30-Mar-2020 11:56am MDT
Few Clouds
Few Clouds
 Wind from NNE
Wind: NNE 18 mph , 30 km/h, Gust: 22 mph , 35 km/h
Temperature: 55°F , 13°C
Dew Point: 23°F , -5°C
Humidity: 28%
Barometer: 29.98 inHg , 1015.2 hPa
Clouds: Few Clouds
Visibility: 10 miles , 16 km
Cloud details: Few Clouds 9500 ft
2020/03/30 17:56 KFNL 301756Z 02016G19KT 10SM FEW095 13/M05 A2998 RMK AO2 SLP133 T01281050 10139 21011 57003
KGXY - Greeley/Weld, Colorado, USA
Distance from station: ENE 14mi, 23km
Updated: Mon, 30-Mar-2020 11:56am MDT
Overcast
Overcast
 Wind from NNE
Wind: NNE 8 mph , 13 km/h
Temperature: 54°F , 12°C
Dew Point: 25°F , -4°C
Humidity: 33%
Barometer: 29.99 inHg , 1015.6 hPa
Clouds: Overcast
Visibility: 10 miles , 16 km
Cloud details: Overcast 8000 ft
2020/03/30 17:56 KGXY 301756Z AUTO 03007KT 020V080 10SM OVC080 12/M04 A2999 RMK AO2 SLP165 T01221044 10122 21006 58002
 
KLMO - Longmont/Vbrand, Colorado, USA
Distance from station: SW 20mi, 33km
Updated: Mon, 30-Mar-2020 12:15pm MDT
Partly cloudy
Partly cloudy
 Wind from NW
Wind: NW 5 mph , 7 km/h
Temperature: 59°F , 15°C
Dew Point: 27°F , -3°C
Humidity: 29%
Barometer: 29.99 inHg , 1015.6 hPa
Clouds: Partly cloudy
Visibility: 10 miles , 16 km
Cloud details: Partly cloudy 9000 ft
2020/03/30 18:15 KLMO 301815Z AUTO 32004KT 10SM SCT090 15/M03 A2999 RMK AO2 T01531035
KEIK - Erie Muni, Colorado, USA
Distance from station: SSW 25mi, 40km
Updated: Mon, 30-Mar-2020 12:23pm MDT
Clear
Clear
 Wind from ENE
Wind: ENE 5 mph , 7 km/h
Temperature: 54°F , 12°C
Dew Point: 23°F , -5°C
Humidity: 30%
Barometer: 30.04 inHg , 1017.3 hPa
Clouds: Clear
Visibility: 10 miles , 16 km
2020/03/30 18:23 KEIK 301823Z AUTO 06004KT 10SM CLR 12/M05 A3004 RMK AO2 T01151050
 
KBDU - Boulder Muni, Colorado, USA
Distance from station: SW 29mi, 47km
Updated: Mon, 30-Mar-2020 12:12pm MDT
Mostly cloudy
Mostly cloudy
 Wind from NNE
Wind: NNE 3 mph , 6 km/h
Temperature: 54°F , 12°C
Dew Point: 25°F , -4°C
Humidity: 33%
Barometer: 29.98 inHg , 1015.2 hPa
Clouds: Mostly cloudy
Visibility: 10 miles , 16 km
Cloud details: Partly cloudy 6500 ft
Mostly cloudy 8000 ft
Mostly cloudy 9000 ft
2020/03/30 18:12 KBDU 301812Z AUTO 02003KT 10SM SCT065 BKN080 BKN090 12/M04 A2998 RMK AO2
KBJC - Broomfield/Jeffc, Colorado, USA
Distance from station: SSW 34mi, 54km
Updated: Mon, 30-Mar-2020 10:47am MDT
NOT Current
Mostly cloudy
Mostly cloudy
 Wind from S
Wind: S 5 mph , 7 km/h
Temperature: 46°F , 8°C
Wind Chill: 44°F , 7°C
Dew Point: 21°F , -6°C
Humidity: 37%
Barometer: 30.01 inHg , 1016.3 hPa
Clouds: Mostly cloudy
Visibility: 10 miles , 16 km
Cloud details: Mostly cloudy 15000 ft
2020/03/30 16:47 KBJC 301647Z 18004KT 10SM BKN150 08/M06 A3001
 
KDEN - Denver (dia), Colorado, USA
Distance from station: SSE 37mi, 59km
Updated: Mon, 30-Mar-2020 11:53am MDT
Mostly cloudy
Mostly cloudy
 Wind from N
Wind: N 14 mph , 22 km/h
Temperature: 50°F , 10°C
Wind Chill: 45°F , 7°C
Dew Point: 23°F , -5°C
Humidity: 35%
Barometer: 29.99 inHg , 1015.6 hPa
Clouds: Mostly cloudy
Visibility: 10 miles , 16 km
Cloud details: Few Clouds 10000 ft
Mostly cloudy 15000 ft
Mostly cloudy 20000 ft
2020/03/30 17:53 KDEN 301753Z 36012KT 10SM FEW100 BKN150 BKN200 10/M05 A2999 RMK AO2 SLP140 T01001050 10100 20017 51004
KFTG - Denver F. Range, Colorado, USA
Distance from station: SSE 43mi, 69km
Updated: Wed, 29-Jan-2020 9:55pm MST
NOT Current
Overcast
Overcast
 Wind from W
Wind: W 7 mph , 11 km/h
Temperature: 30°F , -1°C
Wind Chill: 23°F , -5°C
Dew Point: 28°F , -2°C
Humidity: 93%
Barometer: 30.06 inHg , 1017.9 hPa
Clouds: Overcast
Visibility: 10 miles , 16 km
Cloud details: Partly cloudy 1300 ft
Mostly cloudy 2300 ft
Overcast 6000 ft
2020/01/30 04:55 KFTG 300455Z AUTO 26006KT 10SM SCT013 BKN023 OVC060 M01/M02 A3006 RMK AO2 T10111023
 
KBKF - Buckley Angb/Den, Colorado, USA
Distance from station: S 44mi, 72km
Updated: Mon, 30-Mar-2020 11:58am MDT
Mostly cloudy
Mostly cloudy
 Wind from N
Wind: N 14 mph , 22 km/h, Gust: 18 mph , 30 km/h
Temperature: 48°F , 9°C
Wind Chill: 42°F , 6°C
Dew Point: 23°F , -5°C
Humidity: 37%
Barometer: 30.00 inHg , 1015.9 hPa
Clouds: Mostly cloudy
Visibility: 10 miles , 16 km
Cloud details: Few Clouds 8000 ft
Mostly cloudy 12000 ft
Mostly cloudy 20000 ft
2020/03/30 17:58 KBKF 301758Z 35012G16KT 10SM FEW080 BKN120 BKN200 09/M05 A3000 RMK AO2A SLP142 T00891047 10089 20016 50004
KCAG - Craig, Colorado, USA
Distance from station: ESE 227mi, 365km
Updated: Mon, 30-Mar-2020 11:53am MDT
Mostly cloudy
Mostly cloudy
 Wind from SSW
Wind: SSW 7 mph , 11 km/h
Temperature: 45°F , 7°C
Wind Chill: 41°F , 5°C
Dew Point: 30°F , -1°C
Humidity: 57%
Barometer: 30.12 inHg , 1020 hPa
Clouds: Mostly cloudy
Visibility: 10 miles , 16 km
Cloud details: Partly cloudy 2500 ft
Partly cloudy 3000 ft
Mostly cloudy 6500 ft
2020/03/30 17:53 KCAG 301753Z AUTO 21006KT 10SM SCT025 SCT030 BKN065 07/M01 A3012 RMK AO2 SLP201 60000 T00721006 10078 21011 50007
 
KHDN - Hayden/Yampa, Colorado, USA
Distance from station: E 211mi, 339km
Updated: Mon, 30-Mar-2020 11:56am MDT
Overcast
Overcast
 Wind from W
Wind: W 12 mph , 19 km/h
Temperature: 39°F , 4°C
Wind Chill: 32°F , 0°C
Dew Point: 30°F , -1°C
Humidity: 70%
Barometer: 30.12 inHg , 1020 hPa
Clouds: Overcast
Visibility: 10 miles , 16 km
Cloud details: Few Clouds 2000 ft
Mostly cloudy 3900 ft
Overcast 6000 ft
2020/03/30 17:56 KHDN 301756Z AUTO 26010KT 10SM FEW020 BKN039 OVC060 04/M01 A3012 RMK AO2 SLP202 T00441006 10044 21017 51007
KSBS - Steamboat Spring, Colorado, USA
Distance from station: E 186mi, 299km
Updated: Mon, 30-Mar-2020 12:15pm MDT
Overcast
Overcast
 Wind from SSE
Wind: SSE 3 mph , 6 km/h
Temperature: 37°F , 3°C
Dew Point: 27°F , -3°C
Humidity: 65%
Barometer: 30.10 inHg , 1019.3 hPa
Clouds: Overcast
Visibility: 10 miles , 16 km
Cloud details: Partly cloudy 3000 ft
Partly cloudy 4400 ft
Overcast 6000 ft
2020/03/30 18:15 KSBS 301815Z AUTO 16003KT 10SM SCT030 SCT044 OVC060 03/M03 A3010 RMK AO1 T00301027
 
KDWX - Dixon, Wyoming, USA
Distance from station: N 278mi, 447km
Updated: Mon, 30-Mar-2020 12:10pm MDT
Partly cloudy
Partly cloudy
 Wind from SSW
Wind: SSW 9 mph , 15 km/h
Temperature: 41°F , 5°C
Wind Chill: 35°F , 2°C
Dew Point: 25°F , -4°C
Humidity: 53%
Barometer: 30.13 inHg , 1020.3 hPa
Clouds: Partly cloudy
Visibility: 10 miles , 16 km
Cloud details: Partly cloudy 3800 ft
Partly cloudy 4900 ft
2020/03/30 18:10 KDWX 301810Z AUTO 21008KT 160V310 10SM SCT038 SCT049 05/M04 A3013 RMK AO2 T00511036
KEEO - Meeker, Colorado, USA
Distance from station: SSW 269mi, 433km
Updated: Mon, 30-Mar-2020 12:03pm MDT
Mostly cloudy
Mostly cloudy
 Wind from SSW
Wind: SSW 8 mph , 13 km/h
Temperature: 43°F , 6°C
Wind Chill: 38°F , 3°C
Dew Point: 34°F , 1°C
Humidity: 71%
Barometer: 30.13 inHg , 1020.3 hPa
Clouds: Mostly cloudy
Visibility: 10 miles , 16 km
Cloud details: Partly cloudy 2100 ft
Partly cloudy 5000 ft
Mostly cloudy 6000 ft
2020/03/30 18:03 KEEO 301803Z AUTO 21007KT 10SM SCT021 SCT050 BKN060 06/01 A3013 RMK AO2 T00560006